Time;durP1;ratioP1;P1;durP2;ratioP2;P2;SDS_P1;SDS_P2;PMS_P1;PMS_P2;Temp;Humidity;BMP_temperature;BMP_pressure;BME280_temperature;BME280_humidity;BME280_pressure;Samples;Min_cycle;Max_cycle;Signal;HPM_P1;HPM_P2
2021/04/16 00:00:46;;;;;;;4.30;0.52;;;5.00;90.00;;;;;;3597787;39;20067;-78
2021/04/16 00:03:13;;;;;;;1.55;0.30;;;5.00;90.00;;;;;;3606993;39;20039;-79
2021/04/16 00:05:40;;;;;;;3.15;0.80;;;5.00;90.30;;;;;;3607450;39;20310;-79
2021/04/16 00:08:12;;;;;;;4.95;0.82;;;5.00;90.10;;;;;;3607184;39;20043;-79
2021/04/16 00:10:42;;;;;;;1.65;0.40;;;5.00;89.80;;;;;;3597829;39;20302;-79
2021/04/16 00:13:11;;;;;;;2.65;0.50;;;5.00;90.20;;;;;;3606926;39;20075;-77
2021/04/16 00:15:39;;;;;;;8.68;1.08;;;5.00;90.30;;;;;;3597952;39;20397;-78
2021/04/16 00:18:07;;;;;;;3.05;0.40;;;5.00;90.00;;;;;;3595235;40;20250;-79
2021/04/16 00:20:34;;;;;;;1.55;0.40;;;4.90;90.00;;;;;;3605061;39;20046;-78
2021/04/16 00:23:00;;;;;;;2.33;0.47;;;4.80;90.00;;;;;;3597454;39;20338;-78
2021/04/16 00:25:28;;;;;;;6.00;0.60;;;4.80;90.00;;;;;;3598000;39;20043;-78
2021/04/16 00:27:54;;;;;;;7.25;1.13;;;4.80;90.30;;;;;;3597678;39;20039;-78
2021/04/16 00:30:32;;;;;;;5.60;1.08;;;4.80;90.30;;;;;;3596451;39;20040;-80
2021/04/16 00:32:58;;;;;;;4.57;0.40;;;4.80;90.30;;;;;;3597905;39;20036;-79
2021/04/16 00:35:24;;;;;;;4.25;0.82;;;4.70;90.10;;;;;;3606689;39;20139;-78
2021/04/16 00:37:50;;;;;;;3.90;1.75;;;4.70;90.20;;;;;;3595473;39;20051;-78
2021/04/16 00:40:21;;;;;;;5.03;0.60;;;4.70;90.60;;;;;;3606808;39;20043;-78
2021/04/16 00:42:56;;;;;;;2.85;1.00;;;4.70;90.30;;;;;;3607101;39;20043;-78
2021/04/16 00:45:24;;;;;;;4.70;1.38;;;4.70;90.30;;;;;;3606827;39;20044;-78
2021/04/16 00:47:52;;;;;;;6.45;0.70;;;4.60;90.70;;;;;;3607281;39;20685;-79
2021/04/16 00:50:26;;;;;;;3.75;1.27;;;4.70;90.30;;;;;;3605015;39;20043;-79
2021/04/16 00:52:52;;;;;;;3.40;0.82;;;4.60;91.00;;;;;;3590507;40;20509;-79
2021/04/16 00:55:20;;;;;;;6.22;0.90;;;4.70;90.80;;;;;;3598002;39;20366;-78
2021/04/16 00:57:46;;;;;;;7.65;0.93;;;4.60;90.70;;;;;;3587698;40;20039;-78
2021/04/16 01:00:13;;;;;;;2.03;0.82;;;4.60;90.80;;;;;;3601299;39;20048;-80
2021/04/16 01:02:39;;;;;;;3.45;0.57;;;4.60;91.10;;;;;;3597727;39;20050;-78
2021/04/16 01:05:08;;;;;;;3.47;1.65;;;4.60;91.30;;;;;;3587473;40;20067;-78
2021/04/16 01:07:34;;;;;;;4.53;0.95;;;4.60;91.30;;;;;;3596769;40;20038;-79
2021/04/16 01:10:01;;;;;;;4.93;0.90;;;4.60;91.30;;;;;;3594531;39;20062;-78
2021/04/16 01:12:27;;;;;;;2.45;0.60;;;4.60;90.80;;;;;;3606756;39;20369;-79
2021/04/16 01:15:02;;;;;;;2.30;0.55;;;4.70;91.10;;;;;;3605975;39;20412;-78
2021/04/16 01:17:28;;;;;;;3.55;0.60;;;4.70;91.50;;;;;;3578745;40;20036;-78
2021/04/16 01:20:19;;;;;;;2.92;0.45;;;4.60;91.50;;;;;;3606830;39;20040;-78
2021/04/16 01:23:01;;;;;;;6.95;0.70;;;4.60;91.80;;;;;;3601942;39;20036;-78
2021/04/16 01:25:28;;;;;;;5.80;0.38;;;4.70;91.10;;;;;;3597724;39;20043;-78
2021/04/16 01:27:54;;;;;;;6.47;0.50;;;4.70;91.10;;;;;;3597039;39;20047;-78
2021/04/16 01:30:28;;;;;;;8.30;0.80;;;4.70;91.30;;;;;;3596894;39;20226;-77
2021/04/16 01:32:55;;;;;;;4.63;0.57;;;4.60;91.20;;;;;;3606860;39;20509;-78
2021/04/16 01:35:27;;;;;;;1.60;0.93;;;4.60;91.50;;;;;;3588497;40;20052;-79
2021/04/16 01:37:53;;;;;;;2.80;0.30;;;4.70;91.60;;;;;;3584489;40;20047;-78
2021/04/16 01:40:20;;;;;;;9.20;2.35;;;4.80;91.20;;;;;;3566800;40;20040;-80
2021/04/16 01:42:46;;;;;;;4.47;0.90;;;4.80;91.80;;;;;;3559151;40;20138;-78
2021/04/16 01:45:21;;;;;;;3.42;0.45;;;4.80;91.70;;;;;;3576230;40;20263;-79
2021/04/16 01:47:55;;;;;;;3.10;0.55;;;4.80;91.50;;;;;;3576367;40;20040;-78
2021/04/16 01:50:21;;;;;;;3.08;0.70;;;4.70;91.40;;;;;;3580844;40;20055;-79
2021/04/16 01:52:47;;;;;;;3.78;1.05;;;4.70;91.30;;;;;;3589717;40;20068;-79
2021/04/16 01:55:13;;;;;;;5.75;0.75;;;4.70;90.90;;;;;;3587057;40;20040;-79
2021/04/16 01:57:38;;;;;;;4.50;0.47;;;4.80;91.50;;;;;;3576883;40;20057;-79
2021/04/16 02:00:31;;;;;;;6.07;1.02;;;4.70;91.50;;;;;;3586454;40;20041;-79
2021/04/16 02:03:02;;;;;;;3.83;0.38;;;4.80;91.50;;;;;;3577235;40;20420;-79
2021/04/16 02:05:28;;;;;;;1.65;0.30;;;4.80;91.70;;;;;;3585817;40;20093;-80
2021/04/16 02:07:54;;;;;;;4.53;0.30;;;4.80;91.10;;;;;;3603088;23;20048;-79
2021/04/16 02:10:21;;;;;;;7.35;0.30;;;4.80;91.40;;;;;;3585128;40;20070;-79
2021/04/16 02:12:47;;;;;;;2.55;0.20;;;4.90;91.30;;;;;;3576897;40;20044;-79
2021/04/16 02:15:14;;;;;;;3.35;0.43;;;4.90;91.10;;;;;;3585876;40;20040;-79
2021/04/16 02:17:40;;;;;;;1.95;0.90;;;4.90;91.10;;;;;;3578091;40;20322;-78
2021/04/16 02:20:13;;;;;;;4.35;0.50;;;4.80;91.20;;;;;;3577354;40;20040;-79
2021/04/16 02:22:38;;;;;;;6.30;0.73;;;4.80;91.20;;;;;;3586311;40;20072;-78
2021/04/16 02:25:06;;;;;;;5.95;0.57;;;4.80;91.30;;;;;;3576460;40;20045;-79
2021/04/16 02:27:32;;;;;;;3.05;0.43;;;4.70;91.40;;;;;;3584591;40;20058;-80
2021/04/16 02:29:58;;;;;;;3.25;0.82;;;4.70;91.20;;;;;;3565924;40;20033;-79
2021/04/16 02:32:25;;;;;;;2.83;0.50;;;4.70;91.50;;;;;;3577868;40;20239;-79
2021/04/16 02:34:51;;;;;;;2.92;0.45;;;4.70;91.40;;;;;;3576553;40;20331;-80
2021/04/16 02:37:20;;;;;;;7.40;2.33;;;4.70;91.90;;;;;;3585416;40;20131;-80
2021/04/16 02:39:46;;;;;;;2.50;0.22;;;4.60;91.60;;;;;;3576424;40;20133;-79
2021/04/16 02:42:12;;;;;;;1.13;0.25;;;4.70;91.70;;;;;;3575898;40;20044;-78
2021/04/16 02:44:38;;;;;;;8.10;0.60;;;4.60;91.60;;;;;;3576754;40;20045;-78
2021/04/16 02:47:06;;;;;;;2.97;0.20;;;4.50;91.40;;;;;;3585557;40;20029;-78
2021/04/16 02:49:33;;;;;;;5.05;1.10;;;4.50;91.30;;;;;;3586415;40;20055;-79
2021/04/16 02:52:00;;;;;;;3.83;0.22;;;4.40;91.30;;;;;;3590939;40;20062;-79
2021/04/16 02:54:25;;;;;;;6.28;0.95;;;4.30;91.30;;;;;;3587989;40;20091;-78
2021/04/16 02:56:51;;;;;;;3.90;0.20;;;4.30;91.10;;;;;;3586269;40;20036;-79
2021/04/16 02:59:19;;;;;;;1.63;0.30;;;4.20;91.00;;;;;;3587926;40;20097;-79
2021/04/16 03:01:45;;;;;;;1.67;0.38;;;4.20;91.00;;;;;;3591474;40;20072;-79
2021/04/16 03:04:11;;;;;;;1.77;0.20;;;4.10;91.20;;;;;;3585543;40;20055;-79
2021/04/16 03:06:37;;;;;;;4.20;0.77;;;4.10;91.40;;;;;;3588222;40;20072;-79
2021/04/16 03:09:04;;;;;;;1.35;0.25;;;4.10;91.20;;;;;;3597134;40;20052;-79
2021/04/16 03:11:30;;;;;;;1.52;0.45;;;4.10;91.10;;;;;;3597120;40;20040;-78
2021/04/16 03:13:57;;;;;;;2.00;0.30;;;4.00;91.20;;;;;;3597552;40;20043;-79
2021/04/16 03:16:25;;;;;;;2.40;0.20;;;4.00;91.20;;;;;;3597048;40;20051;-79
2021/04/16 03:18:52;;;;;;;4.45;0.40;;;3.90;91.30;;;;;;3597586;40;20051;-79
2021/04/16 03:21:19;;;;;;;2.40;0.77;;;3.90;91.50;;;;;;3597118;40;20032;-79
2021/04/16 03:23:44;;;;;;;0.60;0.10;;;3.90;91.90;;;;;;3597467;40;20043;-81
2021/04/16 03:26:11;;;;;;;1.75;0.65;;;3.90;91.60;;;;;;3586249;40;20051;-78
2021/04/16 03:28:37;;;;;;;1.35;0.13;;;3.90;91.90;;;;;;3569729;40;20056;-80
2021/04/16 03:31:03;;;;;;;2.22;0.10;;;3.90;91.50;;;;;;3588544;40;20049;-78
2021/04/16 03:33:29;;;;;;;0.95;0.20;;;3.90;91.20;;;;;;3586251;40;20128;-80
2021/04/16 03:35:55;;;;;;;1.73;0.20;;;3.80;91.20;;;;;;3587281;40;20036;-81
2021/04/16 03:38:21;;;;;;;1.90;0.20;;;3.70;91.20;;;;;;3586981;40;20040;-79
2021/04/16 03:40:47;;;;;;;1.65;0.20;;;3.70;91.20;;;;;;3585980;40;20103;-78
2021/04/16 03:43:13;;;;;;;1.20;0.17;;;3.60;91.10;;;;;;3586910;40;20080;-78
2021/04/16 03:45:39;;;;;;;1.00;0.30;;;3.50;91.20;;;;;;3587027;40;20354;-79
2021/04/16 03:48:05;;;;;;;3.55;0.30;;;3.40;91.00;;;;;;3588224;40;20040;-78
2021/04/16 03:50:34;;;;;;;4.07;0.28;;;3.30;91.00;;;;;;3593238;40;20047;-80
2021/04/16 03:53:04;;;;;;;3.60;0.35;;;3.30;91.00;;;;;;3583877;40;20080;-78
2021/04/16 03:55:33;;;;;;;1.42;0.20;;;3.10;91.00;;;;;;3586892;40;20121;-79
2021/04/16 03:57:59;;;;;;;1.60;0.20;;;3.10;91.10;;;;;;3578135;40;20417;-79
2021/04/16 04:00:29;;;;;;;3.45;0.50;;;3.10;91.00;;;;;;3587113;40;20349;-79
2021/04/16 04:02:55;;;;;;;3.60;0.45;;;3.00;91.10;;;;;;3587080;40;20312;-78
2021/04/16 04:05:21;;;;;;;3.90;2.13;;;2.90;91.00;;;;;;3586191;40;20040;-80
2021/04/16 04:07:46;;;;;;;2.40;0.65;;;2.80;91.10;;;;;;3570496;40;20398;-78
2021/04/16 04:10:14;;;;;;;1.67;0.55;;;2.80;91.00;;;;;;3577173;40;20559;-79
2021/04/16 04:12:39;;;;;;;3.88;0.30;;;2.80;91.10;;;;;;3586995;40;20055;-78
2021/04/16 04:15:07;;;;;;;1.30;0.40;;;2.70;91.00;;;;;;3586986;40;20242;-77
2021/04/16 04:17:35;;;;;;;2.20;0.30;;;2.70;91.00;;;;;;3586907;40;20130;-79
2021/04/16 04:20:04;;;;;;;1.23;0.32;;;2.60;91.00;;;;;;3587812;40;20448;-80
2021/04/16 04:22:29;;;;;;;4.75;0.50;;;2.60;91.00;;;;;;3586789;40;20036;-78
2021/04/16 04:24:55;;;;;;;1.58;0.40;;;2.60;91.10;;;;;;3586789;40;20048;-79
2021/04/16 04:27:21;;;;;;;2.08;0.75;;;2.50;91.00;;;;;;3588458;40;20094;-78
2021/04/16 04:29:47;;;;;;;0.88;0.25;;;2.50;91.10;;;;;;3585574;40;20036;-78
2021/04/16 04:32:13;;;;;;;1.67;0.50;;;2.50;91.10;;;;;;3577373;40;20529;-79
2021/04/16 04:34:39;;;;;;;0.80;0.25;;;2.50;91.10;;;;;;3577963;40;20326;-79
2021/04/16 04:37:07;;;;;;;2.17;0.75;;;2.40;91.20;;;;;;3586865;40;20051;-79
2021/04/16 04:39:36;;;;;;;3.72;0.30;;;2.40;91.20;;;;;;3577593;40;20314;-78
2021/04/16 04:42:04;;;;;;;2.95;0.30;;;2.40;91.30;;;;;;3586796;40;20036;-77
2021/04/16 04:44:30;;;;;;;10.45;0.95;;;2.40;92.00;;;;;;3577427;40;20138;-80
2021/04/16 04:46:56;;;;;;;3.17;0.85;;;2.40;91.90;;;;;;3586930;40;20052;-78
2021/04/16 04:49:22;;;;;;;3.33;1.50;;;2.50;91.80;;;;;;3586560;40;20036;-79
2021/04/16 04:51:50;;;;;;;3.00;0.93;;;2.60;91.90;;;;;;3577472;40;20250;-78
2021/04/16 04:54:18;;;;;;;3.22;0.95;;;2.70;92.20;;;;;;3577059;40;20040;-78
2021/04/16 04:56:44;;;;;;;4.78;0.70;;;2.80;92.10;;;;;;3586397;40;20053;-79
2021/04/16 04:59:09;;;;;;;2.25;0.40;;;2.90;92.80;;;;;;3577985;40;20048;-77
2021/04/16 05:01:35;;;;;;;6.70;0.65;;;2.90;92.10;;;;;;3586648;40;20051;-78
2021/04/16 05:04:01;;;;;;;1.73;0.30;;;2.90;91.70;;;;;;3586598;40;20055;-78
2021/04/16 05:06:28;;;;;;;7.07;0.32;;;2.80;91.60;;;;;;3585325;40;20355;-79
2021/04/16 05:08:54;;;;;;;1.60;0.38;;;2.80;91.60;;;;;;3587085;40;20040;-78
2021/04/16 05:11:19;;;;;;;4.90;0.40;;;2.80;91.50;;;;;;3588849;40;20239;-80
2021/04/16 05:13:53;;;;;;;3.40;1.15;;;2.80;91.60;;;;;;3591245;39;20076;-79
2021/04/16 05:16:19;;;;;;;1.83;0.95;;;2.80;91.60;;;;;;3588162;40;20036;-78
2021/04/16 05:18:47;;;;;;;7.90;1.33;;;2.80;91.60;;;;;;3591164;40;20101;-77
2021/04/16 05:21:13;;;;;;;3.13;0.80;;;2.80;91.90;;;;;;3585201;40;20032;-78
2021/04/16 05:23:40;;;;;;;2.40;0.82;;;2.80;92.00;;;;;;3587135;40;20051;-77
2021/04/16 05:26:06;;;;;;;5.53;0.70;;;2.80;91.80;;;;;;3582789;40;20037;-78
2021/04/16 05:28:32;;;;;;;6.20;0.73;;;2.90;92.70;;;;;;3590708;40;20132;-78
2021/04/16 05:30:58;;;;;;;8.38;1.35;;;2.90;92.90;;;;;;3586890;40;20040;-79
2021/04/16 05:33:23;;;;;;;10.73;1.15;;;3.10;92.70;;;;;;3594309;40;20036;-79
2021/04/16 05:35:49;;;;;;;6.05;1.00;;;3.20;92.40;;;;;;3584801;40;20044;-78
2021/04/16 05:38:15;;;;;;;7.22;0.90;;;3.30;92.50;;;;;;3587367;40;20035;-79
2021/04/16 05:40:41;;;;;;;5.45;0.73;;;3.40;92.30;;;;;;3586782;40;20059;-78
2021/04/16 05:43:07;;;;;;;6.57;1.67;;;3.50;92.80;;;;;;3587633;40;20518;-79
2021/04/16 05:45:33;;;;;;;8.25;1.70;;;3.70;93.20;;;;;;3585358;40;20072;-78
2021/04/16 05:47:58;;;;;;;18.23;3.00;;;3.90;93.10;;;;;;3585745;40;20334;-79
2021/04/16 05:50:25;;;;;;;9.30;1.00;;;4.20;94.40;;;;;;3584773;40;20041;-79
2021/04/16 05:52:51;;;;;;;9.18;1.45;;;4.30;93.50;;;;;;3593797;40;20629;-79
2021/04/16 05:55:17;;;;;;;8.13;1.63;;;4.50;93.70;;;;;;3587274;40;20040;-78
2021/04/16 05:57:43;;;;;;;5.40;0.90;;;4.60;93.10;;;;;;3586332;40;20040;-79
2021/04/16 06:00:10;;;;;;;8.68;1.38;;;4.70;94.00;;;;;;3587438;40;20353;-81
2021/04/16 06:02:43;;;;;;;8.07;1.98;;;4.80;93.10;;;;;;3590821;40;20521;-78
2021/04/16 06:05:14;;;;;;;7.45;1.58;;;4.90;93.20;;;;;;3589847;40;20048;-77
2021/04/16 06:10:09;;;;;;;5.20;1.02;;;5.90;95.10;;;;;;3564636;40;20041;-78
2021/04/16 06:12:37;;;;;;;3.53;0.55;;;6.70;94.10;;;;;;3565913;40;20506;-79
2021/04/16 06:15:09;;;;;;;7.93;0.65;;;7.10;93.10;;;;;;3575823;40;20033;-78
2021/04/16 06:17:35;;;;;;;4.10;0.82;;;7.40;92.50;;;;;;3575918;40;20081;-80
2021/04/16 06:20:01;;;;;;;6.88;0.30;;;7.80;91.90;;;;;;3575049;40;20037;-80
2021/04/16 06:22:27;;;;;;;3.83;0.40;;;8.20;91.30;;;;;;3575481;40;20049;-79
2021/04/16 06:24:52;;;;;;;2.45;0.73;;;8.60;90.40;;;;;;3575616;40;20037;-78
2021/04/16 06:27:19;;;;;;;4.35;0.98;;;8.90;90.10;;;;;;3574999;40;20047;-79
2021/04/16 06:29:45;;;;;;;4.68;1.02;;;8.90;89.90;;;;;;3575639;40;20065;-79
2021/04/16 06:32:13;;;;;;;1.35;0.40;;;8.90;89.70;;;;;;3556516;40;20048;-79
2021/04/16 06:34:40;;;;;;;5.40;0.80;;;8.70;90.00;;;;;;3573643;40;20029;-79
2021/04/16 06:37:06;;;;;;;2.05;0.30;;;8.60;89.50;;;;;;3566452;40;20310;-79
2021/04/16 06:39:35;;;;;;;3.78;0.30;;;8.60;90.00;;;;;;3565961;40;20091;-80
2021/04/16 06:42:04;;;;;;;4.13;0.30;;;8.80;89.80;;;;;;3566546;40;20095;-79
2021/04/16 06:44:33;;;;;;;3.38;0.32;;;9.30;90.40;;;;;;3566125;40;20638;-78
2021/04/16 06:47:23;;;;;;;1.77;0.20;;;10.00;89.90;;;;;;3575846;40;20041;-79
2021/04/16 06:49:49;;;;;;;2.22;0.30;;;10.80;84.80;;;;;;3556076;40;20490;-78
2021/04/16 06:52:35;;;;;;;0.65;0.40;;;11.50;85.90;;;;;;3575111;40;20048;-79
2021/04/16 06:55:14;;;;;;;1.15;0.20;;;11.70;84.10;;;;;;3575507;40;20063;-79
2021/04/16 06:57:44;;;;;;;4.57;0.65;;;12.00;78.10;;;;;;3575476;40;20235;-79
2021/04/16 07:00:38;;;;;;;2.85;0.20;;;12.30;82.50;;;;;;3565805;40;20043;-79
2021/04/16 07:03:10;;;;;;;2.77;0.10;;;12.40;77.60;;;;;;3566346;40;20423;-80
2021/04/16 07:05:45;;;;;;;2.47;1.55;;;12.20;76.40;;;;;;3573066;40;20048;-78
2021/04/16 07:08:37;;;;;;;0.98;0.20;;;12.40;79.30;;;;;;3567875;40;20086;-78
2021/04/16 07:11:20;;;;;;;3.88;0.20;;;12.90;73.50;;;;;;3585514;40;20315;-78
2021/04/16 07:13:46;;;;;;;0.63;0.10;;;13.20;76.40;;;;;;3585322;40;20043;-78
2021/04/16 07:16:11;;;;;;;3.03;0.20;;;13.50;76.60;;;;;;3575172;40;20037;-80
2021/04/16 07:18:41;;;;;;;2.28;0.20;;;13.70;76.90;;;;;;3575783;40;20437;-79
2021/04/16 07:21:08;;;;;;;1.27;0.17;;;13.80;76.70;;;;;;3575997;40;20044;-80
2021/04/16 07:23:58;;;;;;;2.47;0.10;;;13.90;76.70;;;;;;3576021;40;20033;-79
2021/04/16 07:26:38;;;;;;;2.03;0.20;;;14.00;70.40;;;;;;3585013;40;20044;-78
2021/04/16 07:29:06;;;;;;;1.73;0.10;;;14.30;73.50;;;;;;3585400;40;20040;-78
2021/04/16 07:31:52;;;;;;;0.43;0.10;;;14.30;71.70;;;;;;3581814;40;20051;-78
2021/04/16 07:34:29;;;;;;;0.50;0.15;;;14.40;73.50;;;;;;3575833;40;20033;-79
2021/04/16 07:37:04;;;;;;;1.75;0.10;;;14.50;69.80;;;;;;3595311;23;20124;-78
2021/04/16 07:39:34;;;;;;;1.67;0.10;;;14.50;69.60;;;;;;3574521;40;20037;-78
2021/04/16 07:42:09;;;;;;;1.20;0.13;;;14.60;73.20;;;;;;3569038;40;20105;-77
2021/04/16 07:44:39;;;;;;;1.25;0.10;;;14.60;72.10;;;;;;3559485;40;20049;-78
2021/04/16 07:47:16;;;;;;;1.42;0.13;;;14.70;70.70;;;;;;3556318;40;20058;-78
2021/04/16 07:50:13;;;;;;;2.67;0.20;;;14.70;65.70;;;;;;3566946;40;20067;-77
2021/04/16 07:52:44;;;;;;;0.90;0.20;;;14.70;62.70;;;;;;3547532;40;20324;-78
2021/04/16 07:55:24;;;;;;;0.30;0.10;;;14.90;66.10;;;;;;3566485;40;20053;-78
2021/04/16 07:57:53;;;;;;;0.75;0.20;;;14.90;68.30;;;;;;3566863;40;20040;-80
2021/04/16 08:00:22;;;;;;;2.58;0.20;;;14.80;60.40;;;;;;3566567;40;20070;-79
2021/04/16 08:02:56;;;;;;;0.57;0.20;;;14.70;66.90;;;;;;3566849;40;20048;-78
2021/04/16 08:05:24;;;;;;;2.25;0.20;;;14.70;66.10;;;;;;3566575;40;20116;-78
2021/04/16 08:08:18;;;;;;;1.67;0.35;;;14.90;71.30;;;;;;3566769;40;20067;-78
2021/04/16 08:10:46;;;;;;;1.17;0.20;;;14.90;62.40;;;;;;3556917;40;20065;-79
2021/04/16 08:13:29;;;;;;;1.25;0.28;;;15.10;68.90;;;;;;3566184;40;20138;-79
2021/04/16 08:16:11;;;;;;;0.77;0.20;;;15.10;59.60;;;;;;3557564;40;20044;-78
2021/04/16 08:18:38;;;;;;;1.40;0.15;;;15.00;62.60;;;;;;3564499;40;20045;-79
2021/04/16 08:21:06;;;;;;;1.45;0.20;;;14.90;56.90;;;;;;3556656;40;20045;-79
2021/04/16 08:23:47;;;;;;;1.00;0.25;;;14.80;65.00;;;;;;3563951;40;20056;-78
2021/04/16 08:26:15;;;;;;;3.08;0.20;;;14.80;71.40;;;;;;3565324;40;20048;-78
2021/04/16 08:28:54;;;;;;;2.00;0.50;;;14.90;69.80;;;;;;3566445;40;20131;-79
2021/04/16 08:31:29;;;;;;;1.60;0.50;;;14.90;68.40;;;;;;3569008;40;20320;-79
2021/04/16 08:34:08;;;;;;;1.40;0.28;;;15.00;64.80;;;;;;3566906;40;20074;-78
2021/04/16 08:36:40;;;;;;;2.30;0.32;;;14.80;59.10;;;;;;3566347;40;20139;-79
2021/04/16 08:39:27;;;;;;;0.75;0.20;;;14.50;66.30;;;;;;3557302;40;20045;-78
2021/04/16 08:42:11;;;;;;;0.60;0.28;;;14.20;68.90;;;;;;3565500;40;20045;-79
2021/04/16 08:45:00;;;;;;;4.68;0.60;;;13.90;73.00;;;;;;3566485;40;20119;-78
2021/04/16 08:47:40;;;;;;;0.93;0.30;;;13.60;74.80;;;;;;3566353;40;20049;-79
2021/04/16 08:50:07;;;;;;;3.13;0.45;;;13.60;71.60;;;;;;3566663;40;20135;-79
2021/04/16 08:52:44;;;;;;;2.78;0.30;;;13.40;64.70;;;;;;3566487;40;20426;-78
2021/04/16 08:55:19;;;;;;;2.95;0.47;;;13.10;71.60;;;;;;3566314;40;20422;-78
2021/04/16 08:57:53;;;;;;;1.90;0.35;;;13.00;73.30;;;;;;3566753;40;20053;-77
2021/04/16 09:00:33;;;;;;;2.38;0.30;;;13.10;68.50;;;;;;3556780;40;20588;-79
2021/04/16 09:03:01;;;;;;;2.03;0.55;;;13.10;70.00;;;;;;3557419;40;20045;-77
2021/04/16 09:05:49;;;;;;;2.40;0.40;;;13.20;72.90;;;;;;3565970;40;20045;-78
2021/04/16 09:08:15;;;;;;;4.43;1.95;;;13.20;71.50;;;;;;3566120;40;20069;-78
2021/04/16 09:10:53;;;;;;;4.07;0.60;;;13.20;74.70;;;;;;3566478;40;20041;-78
2021/04/16 09:13:41;;;;;;;1.42;0.50;;;13.10;68.30;;;;;;3566160;40;20044;-77
2021/04/16 09:16:16;;;;;;;6.78;0.50;;;12.90;67.30;;;;;;3564646;40;20793;-77
2021/04/16 09:18:48;;;;;;;6.20;0.60;;;12.70;69.60;;;;;;3566040;40;20046;-77
2021/04/16 09:21:33;;;;;;;4.50;0.60;;;12.50;72.60;;;;;;3556705;40;20037;-79
2021/04/16 09:24:02;;;;;;;2.40;0.35;;;12.30;69.00;;;;;;3566245;40;20033;-79
2021/04/16 09:26:43;;;;;;;2.00;0.60;;;12.20;69.00;;;;;;3557879;40;20085;-78
2021/04/16 09:29:28;;;;;;;2.78;0.40;;;12.00;74.50;;;;;;3566078;40;20048;-79
2021/04/16 09:31:59;;;;;;;1.33;0.47;;;11.90;74.60;;;;;;3565317;40;20045;-79
2021/04/16 09:34:42;;;;;;;1.63;0.50;;;11.70;71.00;;;;;;3565699;40;20045;-78
2021/04/16 09:37:23;;;;;;;2.13;0.80;;;11.70;78.90;;;;;;3563700;40;20060;-79
2021/04/16 09:40:05;;;;;;;5.28;1.00;;;11.60;76.80;;;;;;3566175;40;20209;-77
2021/04/16 09:42:41;;;;;;;1.95;0.45;;;11.50;69.40;;;;;;3556764;40;20606;-79
2021/04/16 09:45:33;;;;;;;1.95;0.40;;;11.50;78.20;;;;;;3556978;40;20037;-77
2021/04/16 09:48:10;;;;;;;4.50;0.68;;;11.50;72.40;;;;;;3555002;40;20033;-79
2021/04/16 09:50:40;;;;;;;4.57;0.60;;;11.50;78.40;;;;;;3566192;40;20351;-78
2021/04/16 09:53:13;;;;;;;4.15;0.93;;;11.50;75.40;;;;;;3566048;40;20052;-78
2021/04/16 09:55:57;;;;;;;3.90;0.50;;;11.60;77.90;;;;;;3566149;40;20037;-78
2021/04/16 09:58:33;;;;;;;3.45;0.50;;;11.50;73.60;;;;;;3565591;40;20065;-78
2021/04/16 10:01:05;;;;;;;3.63;0.40;;;11.60;78.10;;;;;;3565826;40;20053;-78
2021/04/16 10:03:43;;;;;;;3.08;0.60;;;11.60;75.90;;;;;;3566161;40;20587;-79
2021/04/16 10:06:35;;;;;;;4.13;0.50;;;11.60;75.10;;;;;;3556836;40;20053;-77
2021/04/16 10:09:16;;;;;;;4.53;0.50;;;11.60;76.70;;;;;;3556736;40;20045;-77
2021/04/16 10:11:49;;;;;;;5.15;1.75;;;11.60;73.30;;;;;;3557079;40;20316;-78
2021/04/16 10:14:24;;;;;;;5.10;0.77;;;11.40;77.20;;;;;;3565885;40;20052;-78
2021/04/16 10:17:04;;;;;;;2.35;0.52;;;11.40;77.80;;;;;;3566024;40;20338;-79
2021/04/16 10:19:43;;;;;;;3.13;0.40;;;11.50;77.00;;;;;;3565928;40;20044;-77
2021/04/16 10:22:31;;;;;;;5.10;0.52;;;11.60;71.90;;;;;;3565409;40;20120;-78
2021/04/16 10:29:34;;;;;;;2.83;0.60;;;11.70;74.10;;;;;;3526942;40;20043;-77
2021/04/16 11:01:31;;;;;;;4.18;0.85;;;12.00;77.40;;;;;;3548752;40;20250;-78
2021/04/16 12:38:52;;;;;;;5.85;2.30;;;12.50;76.60;;;;;;3568113;40;20452;-78
2021/04/16 12:41:30;;;;;;;6.03;1.70;;;12.60;72.90;;;;;;3572265;40;20438;-77
2021/04/16 12:43:57;;;;;;;5.93;1.75;;;12.70;74.80;;;;;;3573291;40;20037;-78
2021/04/16 12:46:28;;;;;;;6.57;1.55;;;12.60;72.80;;;;;;3573334;40;20123;-78
2021/04/16 12:48:53;;;;;;;5.47;1.02;;;12.50;73.80;;;;;;3574431;40;20323;-77
2021/04/16 12:51:19;;;;;;;3.88;1.38;;;12.60;73.00;;;;;;3566114;40;20052;-78
2021/04/16 12:53:45;;;;;;;6.80;1.67;;;12.60;74.50;;;;;;3565376;40;20143;-79
2021/04/16 12:56:26;;;;;;;4.68;1.15;;;12.60;71.80;;;;;;3575549;40;20040;-79
2021/04/16 12:58:56;;;;;;;7.88;1.70;;;12.50;77.40;;;;;;3576213;40;20044;-78
2021/04/16 13:01:28;;;;;;;6.05;1.88;;;12.60;75.50;;;;;;3573032;40;20051;-78
2021/04/16 13:03:55;;;;;;;7.97;1.35;;;12.60;71.40;;;;;;3567863;40;20044;-77
2021/04/16 13:06:24;;;;;;;4.63;1.70;;;12.50;73.00;;;;;;3573448;40;20077;-78
2021/04/16 13:08:50;;;;;;;6.93;1.63;;;12.50;73.30;;;;;;3571865;40;20041;-78
2021/04/16 13:11:16;;;;;;;3.90;1.73;;;12.50;73.40;;;;;;3565333;40;20037;-77
2021/04/16 13:13:42;;;;;;;5.43;2.00;;;12.40;72.60;;;;;;3564077;40;20094;-78
2021/04/16 13:16:09;;;;;;;6.25;1.85;;;12.30;73.10;;;;;;3566062;40;20052;-77
2021/04/16 13:18:39;;;;;;;3.42;1.45;;;12.20;73.90;;;;;;3564519;40;20132;-78
2021/04/16 13:21:11;;;;;;;4.82;1.17;;;12.20;74.60;;;;;;3572892;40;20077;-78
2021/04/16 13:23:36;;;;;;;5.55;1.92;;;12.10;74.80;;;;;;3566696;40;20046;-78
2021/04/16 13:26:04;;;;;;;5.82;1.38;;;12.10;76.60;;;;;;3569851;40;20041;-78
2021/04/16 13:28:31;;;;;;;6.55;1.70;;;12.10;72.70;;;;;;3573089;40;20051;-79
2021/04/16 13:30:58;;;;;;;2.00;1.45;;;12.00;76.10;;;;;;3566413;40;20045;-78
2021/04/16 13:33:24;;;;;;;5.10;1.58;;;12.10;73.60;;;;;;3575923;40;20052;-79
2021/04/16 13:35:56;;;;;;;3.63;1.58;;;12.30;73.40;;;;;;3563165;40;20043;-77
2021/04/16 13:38:28;;;;;;;4.70;1.52;;;12.40;73.90;;;;;;3570233;40;20045;-78
2021/04/16 13:40:55;;;;;;;2.72;1.17;;;12.30;69.90;;;;;;3573753;40;20040;-78
2021/04/16 13:43:22;;;;;;;6.38;2.53;;;12.20;70.20;;;;;;3557275;40;20494;-78
2021/04/16 13:45:49;;;;;;;2.28;1.70;;;12.30;73.70;;;;;;3574787;40;20041;-78
2021/04/16 13:48:16;;;;;;;6.13;1.33;;;12.30;71.40;;;;;;3573387;40;20068;-79
2021/04/16 13:50:43;;;;;;;6.53;1.73;;;12.40;74.90;;;;;;3575201;40;20468;-78
2021/04/16 13:53:10;;;;;;;4.85;1.30;;;12.50;73.90;;;;;;3565599;40;20048;-77
2021/04/16 13:55:36;;;;;;;2.55;1.27;;;12.40;74.40;;;;;;3566889;40;20069;-78
2021/04/16 13:58:02;;;;;;;5.50;1.13;;;12.50;75.20;;;;;;3572762;40;20076;-79
2021/04/16 14:00:30;;;;;;;6.60;1.90;;;12.50;73.40;;;;;;3569995;40;20041;-77
2021/04/16 14:03:02;;;;;;;6.63;1.65;;;12.50;72.90;;;;;;3573493;40;20048;-78
2021/04/16 14:05:29;;;;;;;5.53;1.23;;;12.40;73.50;;;;;;3571191;40;20048;-78
2021/04/16 14:08:01;;;;;;;7.25;2.17;;;12.20;75.80;;;;;;3564982;40;20068;-78
2021/04/16 14:10:26;;;;;;;5.80;1.40;;;12.30;75.30;;;;;;3572785;40;20044;-78
2021/04/16 14:12:53;;;;;;;2.13;1.65;;;12.40;72.20;;;;;;3558447;40;20044;-78
2021/04/16 14:15:20;;;;;;;4.13;1.15;;;12.50;74.40;;;;;;3565954;40;20119;-77
2021/04/16 14:17:54;;;;;;;6.47;1.42;;;12.60;68.20;;;;;;3565276;40;20344;-78
2021/04/16 14:20:40;;;;;;;5.60;1.25;;;12.50;69.70;;;;;;3575033;40;20041;-78
2021/04/16 14:23:09;;;;;;;3.97;1.10;;;12.40;68.70;;;;;;3571699;40;20049;-77
2021/04/16 14:25:39;;;;;;;3.47;1.83;;;12.30;69.50;;;;;;3565163;40;20135;-78
2021/04/16 14:28:10;;;;;;;5.97;1.10;;;12.30;69.10;;;;;;3563045;40;20037;-78
2021/04/16 14:30:38;;;;;;;5.80;2.35;;;12.20;73.20;;;;;;3572588;40;20028;-78
2021/04/16 14:33:08;;;;;;;2.05;1.27;;;12.10;72.80;;;;;;3561261;40;20041;-78
2021/04/16 14:35:34;;;;;;;7.53;3.20;;;12.10;74.00;;;;;;3572572;40;20037;-78
2021/04/16 14:38:03;;;;;;;3.58;1.10;;;12.20;70.50;;;;;;3571717;40;20059;-78
2021/04/16 14:40:30;;;;;;;5.43;1.60;;;12.10;69.60;;;;;;3573197;40;20122;-77
2021/04/16 14:42:56;;;;;;;1.90;0.95;;;12.20;74.40;;;;;;3573144;40;20071;-77
2021/04/16 14:45:25;;;;;;;3.00;1.50;;;12.30;72.60;;;;;;3573777;40;20040;-78
2021/04/16 14:47:55;;;;;;;3.10;1.08;;;12.30;72.60;;;;;;3576524;40;20040;-79
2021/04/16 14:50:21;;;;;;;4.50;1.60;;;12.20;69.70;;;;;;3558688;40;20252;-78
2021/04/16 14:52:49;;;;;;;2.95;2.10;;;12.20;72.20;;;;;;3576979;40;20045;-78
2021/04/16 14:55:23;;;;;;;3.47;1.77;;;12.20;71.70;;;;;;3571245;40;20041;-77
2021/04/16 14:57:49;;;;;;;3.78;1.45;;;12.20;69.60;;;;;;3574578;40;20275;-78
2021/04/16 15:00:22;;;;;;;5.38;1.88;;;12.20;68.50;;;;;;3572305;40;20045;-78
2021/04/16 15:02:47;;;;;;;3.78;1.58;;;12.00;69.80;;;;;;3572029;40;20048;-78
2021/04/16 15:05:18;;;;;;;8.95;2.33;;;11.90;74.00;;;;;;3573451;40;20041;-78
2021/04/16 15:07:55;;;;;;;3.78;1.45;;;11.90;72.20;;;;;;3563481;40;20045;-78
2021/04/16 15:10:43;;;;;;;3.22;1.45;;;11.90;72.70;;;;;;3574785;40;20049;-78
2021/04/16 15:13:12;;;;;;;3.30;1.67;;;11.80;66.50;;;;;;3575173;40;20048;-78
2021/04/16 15:15:41;;;;;;;2.95;1.10;;;11.80;70.30;;;;;;3575909;40;20041;-77
2021/04/16 15:18:11;;;;;;;2.40;1.48;;;11.90;66.70;;;;;;3573710;40;20057;-78
2021/04/16 15:20:38;;;;;;;4.90;1.77;;;11.90;71.70;;;;;;3565894;40;20041;-78